createdAt,value
2018-07-16T00:00:29.539Z,4.10
2018-07-16T00:02:57.257Z,4.17
2018-07-16T00:05:25.000Z,4.70
2018-07-16T00:07:52.720Z,4.62
2018-07-16T00:10:20.445Z,3.92
2018-07-16T00:12:48.144Z,4.20
2018-07-16T00:15:15.849Z,4.40
2018-07-16T00:17:43.639Z,4.50
2018-07-16T00:20:11.325Z,4.30
2018-07-16T00:22:39.068Z,4.65
2018-07-16T00:25:07.039Z,3.83
2018-07-16T00:27:34.746Z,4.53
2018-07-16T00:30:02.510Z,4.80
2018-07-16T00:32:30.216Z,4.22
2018-07-16T00:34:57.986Z,4.72
2018-07-16T00:37:25.672Z,4.55
2018-07-16T00:39:53.444Z,4.70
2018-07-16T00:42:21.203Z,4.60
2018-07-16T00:44:48.937Z,4.15
2018-07-16T00:47:16.706Z,4.30
2018-07-16T00:49:44.463Z,4.45
2018-07-16T00:52:12.158Z,4.80
2018-07-16T00:54:39.913Z,4.90
2018-07-16T00:57:07.621Z,5.30
2018-07-16T00:59:35.345Z,4.65
2018-07-16T01:02:03.131Z,5.03
2018-07-16T01:04:30.844Z,5.25
2018-07-16T01:06:58.626Z,5.03
2018-07-16T01:09:26.324Z,5.20
2018-07-16T01:11:54.043Z,4.95
2018-07-16T01:14:21.720Z,5.50
2018-07-16T01:16:49.449Z,5.47
2018-07-16T01:19:17.160Z,4.95
2018-07-16T01:21:44.847Z,5.30
2018-07-16T01:24:12.494Z,5.35
2018-07-16T01:26:40.161Z,5.20
2018-07-16T01:29:07.903Z,5.37
2018-07-16T01:31:35.603Z,5.53
2018-07-16T01:34:03.267Z,4.70
2018-07-16T01:36:31.182Z,5.03
2018-07-16T01:38:58.835Z,5.40
2018-07-16T01:41:26.615Z,5.50
2018-07-16T01:43:54.307Z,5.17
2018-07-16T01:46:21.995Z,5.50
2018-07-16T01:48:49.678Z,5.67
2018-07-16T01:51:17.392Z,6.45
2018-07-16T01:53:45.160Z,5.50
2018-07-16T01:56:12.819Z,5.70
2018-07-16T01:58:40.512Z,5.72
2018-07-16T02:01:08.216Z,6.42
2018-07-16T02:03:35.909Z,5.10
2018-07-16T02:06:03.580Z,5.42
2018-07-16T02:08:31.254Z,5.45
2018-07-16T02:10:58.915Z,5.75
2018-07-16T02:13:26.599Z,5.25
2018-07-16T02:15:54.276Z,5.42
2018-07-16T02:18:21.992Z,5.15
2018-07-16T02:20:49.967Z,4.85
2018-07-16T02:23:17.683Z,5.62
2018-07-16T02:25:45.487Z,5.53
2018-07-16T02:28:13.261Z,5.30
2018-07-16T02:30:41.224Z,5.70
2018-07-16T02:33:09.852Z,6.40
2018-07-16T02:35:37.572Z,5.50
2018-07-16T02:38:05.310Z,5.62
2018-07-16T02:40:33.074Z,6.05
2018-07-16T02:43:00.830Z,6.95
2018-07-16T02:45:28.564Z,6.45
2018-07-16T02:47:56.748Z,5.90
2018-07-16T02:50:24.464Z,7.10
2018-07-16T02:52:52.184Z,6.00
2018-07-16T02:55:19.861Z,6.20
2018-07-16T02:57:47.615Z,6.05
2018-07-16T03:00:15.284Z,6.25
2018-07-16T03:02:43.018Z,7.30
2018-07-16T03:05:16.204Z,5.85
2018-07-16T03:07:44.415Z,6.33
2018-07-16T03:10:12.180Z,6.47
2018-07-16T03:12:40.075Z,6.50
2018-07-16T03:15:07.819Z,6.17
2018-07-16T03:17:35.519Z,6.15
2018-07-16T03:20:03.284Z,6.97
2018-07-16T03:22:31.027Z,6.60
2018-07-16T03:24:58.747Z,7.22
2018-07-16T03:27:26.405Z,6.70
2018-07-16T03:29:54.256Z,7.37
2018-07-16T03:32:21.931Z,7.03
2018-07-16T03:34:49.640Z,7.45
2018-07-16T03:37:17.292Z,7.20
2018-07-16T03:39:44.965Z,7.75
2018-07-16T03:42:12.615Z,7.53
2018-07-16T03:44:40.290Z,8.28
2018-07-16T03:47:07.959Z,7.80
2018-07-16T03:49:35.646Z,7.25
2018-07-16T03:52:03.348Z,8.30
2018-07-16T03:54:31.132Z,7.80
2018-07-16T03:56:58.723Z,7.83
2018-07-16T03:59:26.415Z,8.43
2018-07-16T04:01:54.119Z,8.50
2018-07-16T04:04:21.788Z,7.90
2018-07-16T04:06:49.476Z,7.75
2018-07-16T04:09:17.140Z,7.72
2018-07-16T04:11:44.870Z,8.78
2018-07-16T04:14:12.515Z,9.20
2018-07-16T04:16:40.224Z,7.78
2018-07-16T04:19:07.876Z,8.00
2018-07-16T04:21:35.571Z,8.65
2018-07-16T04:24:03.236Z,8.60
2018-07-16T04:26:31.040Z,8.28
2018-07-16T04:28:58.715Z,8.28
2018-07-16T04:31:26.398Z,8.13
2018-07-16T04:33:54.068Z,8.13
2018-07-16T04:36:21.695Z,7.95
2018-07-16T04:38:49.345Z,7.53
2018-07-16T04:41:17.060Z,8.55
2018-07-16T04:43:51.105Z,7.78
2018-07-16T04:46:19.033Z,8.33
2018-07-16T04:48:46.680Z,8.30
2018-07-16T04:51:14.356Z,8.13
2018-07-16T04:53:42.027Z,8.15
2018-07-16T04:56:09.657Z,8.25
2018-07-16T04:58:37.339Z,8.60
2018-07-16T05:01:05.311Z,8.05
2018-07-16T05:03:33.015Z,8.23
2018-07-16T05:06:00.709Z,7.75
2018-07-16T05:08:28.388Z,7.70
2018-07-16T05:10:56.071Z,7.67
2018-07-16T05:13:23.760Z,7.60
2018-07-16T05:15:51.462Z,7.80
2018-07-16T05:18:19.192Z,7.70
2018-07-16T05:20:46.840Z,7.97
2018-07-16T05:23:14.495Z,7.60
2018-07-16T05:25:42.188Z,7.25
2018-07-16T05:28:09.831Z,7.95
2018-07-16T05:30:37.532Z,8.00
2018-07-16T05:33:05.374Z,7.28
2018-07-16T05:35:33.056Z,6.50
2018-07-16T05:38:00.711Z,7.40
2018-07-16T05:40:28.401Z,7.22
2018-07-16T05:42:56.120Z,7.45
2018-07-16T05:45:23.821Z,8.23
2018-07-16T05:47:51.505Z,6.40
2018-07-16T05:50:19.170Z,6.95
2018-07-16T05:52:46.851Z,7.15
2018-07-16T05:55:14.526Z,6.55
2018-07-16T05:57:42.208Z,7.60
2018-07-16T06:00:09.895Z,7.28
2018-07-16T06:02:37.698Z,8.05
2018-07-16T06:05:05.697Z,6.92
2018-07-16T06:07:33.396Z,6.70
2018-07-16T06:10:01.054Z,6.47
2018-07-16T06:12:28.740Z,6.78
2018-07-16T06:14:56.413Z,6.50
2018-07-16T06:17:24.099Z,6.15
2018-07-16T06:19:54.421Z,6.60
2018-07-16T06:22:22.101Z,5.92
2018-07-16T06:24:49.763Z,7.12
2018-07-16T06:27:17.522Z,6.45
2018-07-16T06:29:45.328Z,6.10
2018-07-16T06:32:13.020Z,6.40
2018-07-16T06:34:40.685Z,6.45
2018-07-16T06:37:08.360Z,6.30
2018-07-16T06:39:36.161Z,6.75
2018-07-16T06:42:03.856Z,6.33
2018-07-16T06:44:31.535Z,6.08
2018-07-16T06:46:59.210Z,6.00
2018-07-16T06:49:26.847Z,6.53
2018-07-16T06:51:54.540Z,5.62
2018-07-16T06:54:22.194Z,6.05
2018-07-16T06:56:49.928Z,6.20
2018-07-16T06:59:17.595Z,5.40
2018-07-16T07:01:45.319Z,6.00
2018-07-16T07:04:12.991Z,6.30
2018-07-16T07:06:40.692Z,5.40
2018-07-16T07:09:08.373Z,5.90
2018-07-16T07:11:36.140Z,5.45
2018-07-16T07:14:03.843Z,5.08
2018-07-16T07:16:31.496Z,5.92
2018-07-16T07:18:59.132Z,4.85
2018-07-16T07:21:26.838Z,5.25
2018-07-16T07:23:54.759Z,5.37
2018-07-16T07:26:22.431Z,5.70
2018-07-16T07:28:50.172Z,5.45
2018-07-16T07:31:17.836Z,5.35
2018-07-16T07:33:45.552Z,5.25
2018-07-16T07:36:13.241Z,6.05
2018-07-16T07:38:40.891Z,6.08
2018-07-16T07:41:08.596Z,5.67
2018-07-16T07:43:36.300Z,5.90
2018-07-16T07:46:04.077Z,5.83
2018-07-16T07:48:31.799Z,5.40
2018-07-16T07:50:59.492Z,5.50
2018-07-16T07:53:27.228Z,5.15
2018-07-16T07:55:54.910Z,5.40
2018-07-16T07:58:22.624Z,5.40
2018-07-16T08:00:50.303Z,4.92
2018-07-16T08:03:18.153Z,5.60
2018-07-16T08:05:51.370Z,5.20
2018-07-16T08:08:19.112Z,5.03
2018-07-16T08:10:46.828Z,5.47
2018-07-16T08:13:14.582Z,5.00
2018-07-16T08:15:42.325Z,5.37
2018-07-16T08:18:10.139Z,5.65
2018-07-16T08:20:37.876Z,6.00
2018-07-16T08:23:05.915Z,5.87
2018-07-16T08:25:33.640Z,4.97
2018-07-16T08:28:01.352Z,5.72
2018-07-16T08:30:29.056Z,6.67
2018-07-16T08:32:56.761Z,6.37
2018-07-16T08:35:24.464Z,5.53
2018-07-16T08:37:52.167Z,5.87
2018-07-16T08:40:19.948Z,5.80
2018-07-16T08:42:47.615Z,6.73
2018-07-16T08:45:15.344Z,5.63
2018-07-16T08:47:43.140Z,5.70
2018-07-16T08:50:10.830Z,6.80
2018-07-16T08:52:38.529Z,7.00
2018-07-16T08:55:06.313Z,7.07
2018-07-16T08:57:34.056Z,7.27
2018-07-16T09:00:01.767Z,7.77
2018-07-16T09:02:29.470Z,7.53
2018-07-16T09:04:57.184Z,7.63
2018-07-16T09:07:24.849Z,6.57
2018-07-16T09:09:52.526Z,6.57
2018-07-16T09:12:20.235Z,7.17
2018-07-16T09:14:47.971Z,6.23
2018-07-16T09:17:15.689Z,6.90
2018-07-16T09:19:43.360Z,7.10
2018-07-16T09:22:11.370Z,6.20
2018-07-16T09:24:39.041Z,6.43
2018-07-16T09:27:06.826Z,6.00
2018-07-16T09:29:34.505Z,5.40
2018-07-16T09:32:02.255Z,5.60
2018-07-16T09:34:30.004Z,4.80
2018-07-16T09:36:57.736Z,4.20
2018-07-16T09:39:25.452Z,4.63
2018-07-16T09:41:53.186Z,3.53
2018-07-16T09:44:20.921Z,3.40
2018-07-16T09:46:48.655Z,3.07
2018-07-16T09:49:16.424Z,3.27
2018-07-16T09:51:44.142Z,3.50
2018-07-16T09:54:12.647Z,3.10
2018-07-16T09:56:40.381Z,2.90
2018-07-16T09:59:08.116Z,3.50
2018-07-16T10:01:41.501Z,3.50
2018-07-16T10:04:09.252Z,3.83
2018-07-16T10:06:36.968Z,3.73
2018-07-16T10:09:05.809Z,3.60
2018-07-16T10:11:33.589Z,3.30
2018-07-16T10:14:01.764Z,3.80
2018-07-16T10:16:29.579Z,3.50
2018-07-16T10:18:57.380Z,4.13
2018-07-16T10:21:25.108Z,3.90
2018-07-16T10:23:52.899Z,3.70
2018-07-16T10:26:20.633Z,3.77
2018-07-16T10:28:49.307Z,4.20
2018-07-16T10:31:17.195Z,4.10
2018-07-16T10:33:45.387Z,3.83
2018-07-16T10:36:14.702Z,3.23
2018-07-16T10:38:42.699Z,4.30
2018-07-16T10:41:10.507Z,3.40
2018-07-16T10:43:38.294Z,3.63
2018-07-16T10:46:06.071Z,3.47
2018-07-16T10:48:34.157Z,3.60
2018-07-16T10:51:03.036Z,4.33
2018-07-16T10:53:30.840Z,3.90
2018-07-16T10:55:58.912Z,4.37
2018-07-16T10:58:26.655Z,3.43
2018-07-16T11:00:54.683Z,4.00
2018-07-16T11:03:22.407Z,3.77
2018-07-16T11:05:50.236Z,4.07
2018-07-16T11:08:18.071Z,3.93
2018-07-16T11:10:47.715Z,3.77
2018-07-16T11:13:15.772Z,3.40
2018-07-16T11:15:43.637Z,3.60
2018-07-16T11:18:12.793Z,3.23
2018-07-16T11:20:48.329Z,4.03
2018-07-16T11:23:17.263Z,3.13
2018-07-16T11:25:51.512Z,3.90
2018-07-16T11:28:34.012Z,4.00
2018-07-16T11:31:13.548Z,3.03
2018-07-16T11:33:51.179Z,3.47
2018-07-16T11:36:35.752Z,4.10
2018-07-16T11:39:16.879Z,3.67
2018-07-16T11:42:01.181Z,3.67
2018-07-16T11:44:34.731Z,3.43
2018-07-16T11:47:03.956Z,3.73
2018-07-16T11:49:33.642Z,3.70
2018-07-16T11:52:01.380Z,4.10
2018-07-16T11:54:29.708Z,3.90
2018-07-16T11:56:57.550Z,3.70
2018-07-16T11:59:25.500Z,4.13
2018-07-16T12:01:55.190Z,3.70
2018-07-16T12:04:23.276Z,4.43
2018-07-16T12:06:51.064Z,3.50
2018-07-16T12:09:18.895Z,3.20
2018-07-16T12:11:48.348Z,3.70
2018-07-16T12:14:16.188Z,3.13
2018-07-16T12:16:45.507Z,3.20
2018-07-16T12:19:13.488Z,3.40
2018-07-16T12:21:41.277Z,3.00
2018-07-16T12:24:09.050Z,3.40
2018-07-16T12:26:36.876Z,3.40
2018-07-16T12:29:04.642Z,3.50
2018-07-16T12:31:32.392Z,3.10
2018-07-16T12:34:00.215Z,2.97
2018-07-16T12:36:27.954Z,2.80
2018-07-16T12:38:55.711Z,2.90
2018-07-16T12:41:24.760Z,4.30
2018-07-16T12:43:52.651Z,2.80
2018-07-16T12:46:23.287Z,3.37
2018-07-16T12:48:51.020Z,3.20
2018-07-16T12:51:28.790Z,3.43
2018-07-16T12:53:58.354Z,3.43
2018-07-16T12:56:33.489Z,3.30
2018-07-16T12:59:03.765Z,2.70
2018-07-16T13:01:36.324Z,3.13
2018-07-16T13:04:10.310Z,2.77
2018-07-16T13:06:43.321Z,2.70
2018-07-16T13:09:22.887Z,3.53
2018-07-16T13:17:25.460Z,2.70
2018-07-16T13:19:57.229Z,3.43
2018-07-16T13:22:27.058Z,3.10
2018-07-16T13:24:59.251Z,2.90
2018-07-16T13:27:33.375Z,2.97
2018-07-16T13:30:01.698Z,3.30
2018-07-16T13:32:33.007Z,3.60
2018-07-16T13:35:02.425Z,2.70
2018-07-16T13:37:34.819Z,2.80
2018-07-16T13:40:11.336Z,2.80
2018-07-16T13:42:46.112Z,2.50
2018-07-16T13:45:16.866Z,2.40
2018-07-16T13:47:51.959Z,3.00
2018-07-16T13:50:19.711Z,3.00
2018-07-16T13:52:50.844Z,3.00
2018-07-16T13:55:19.414Z,2.80
2018-07-16T13:58:11.045Z,2.60
2018-07-16T14:00:42.756Z,2.80
2018-07-16T14:03:14.000Z,3.20
2018-07-16T14:05:50.054Z,3.20
2018-07-16T14:08:20.376Z,3.13
2018-07-16T14:10:53.285Z,3.60
2018-07-16T14:13:23.668Z,3.00
2018-07-16T14:15:54.655Z,3.30
2018-07-16T14:18:22.929Z,3.30
2018-07-16T14:20:50.933Z,2.90
2018-07-16T14:23:19.803Z,3.40
2018-07-16T14:25:53.499Z,3.37
2018-07-16T14:28:27.316Z,2.60
2018-07-16T14:30:58.449Z,3.37
2018-07-16T14:33:26.160Z,3.47
2018-07-16T14:35:53.891Z,3.70
2018-07-16T14:38:21.579Z,3.33
2018-07-16T14:40:49.419Z,3.27
2018-07-16T14:43:17.199Z,2.90
2018-07-16T14:45:46.032Z,3.33
2018-07-16T14:48:13.843Z,3.40
2018-07-16T14:50:41.660Z,3.43
2018-07-16T14:53:22.036Z,3.80
2018-07-16T14:55:56.707Z,3.43
2018-07-16T14:58:52.662Z,3.50
2018-07-16T15:05:14.735Z,3.50
2018-07-16T15:08:14.927Z,3.40
2018-07-16T15:10:52.697Z,3.10
2018-07-16T15:13:33.673Z,3.33
2018-07-16T15:16:02.741Z,3.80
2018-07-16T15:18:30.488Z,3.40
2018-07-16T15:20:58.475Z,3.13
2018-07-16T15:23:27.924Z,2.90
2018-07-16T15:25:57.641Z,3.20
2018-07-16T15:28:25.313Z,2.57
2018-07-16T15:30:53.042Z,3.43
2018-07-16T15:33:20.741Z,3.37
2018-07-16T15:35:49.350Z,3.50
2018-07-16T15:38:17.054Z,2.77
2018-07-16T15:40:44.792Z,3.20
2018-07-16T15:43:12.487Z,3.13
2018-07-16T15:45:40.232Z,2.90
2018-07-16T15:48:08.906Z,3.30
2018-07-16T15:50:36.616Z,3.30
2018-07-16T15:53:05.606Z,2.80
2018-07-16T15:55:34.167Z,3.27
2018-07-16T15:58:02.691Z,3.40
2018-07-16T16:00:30.397Z,3.50
2018-07-16T16:02:58.682Z,2.90
2018-07-16T16:05:27.040Z,3.27
2018-07-16T16:07:54.753Z,2.97
2018-07-16T16:10:23.045Z,2.73
2018-07-16T16:12:50.763Z,3.30
2018-07-16T16:15:18.459Z,3.47
2018-07-16T16:17:46.173Z,3.70
2018-07-16T16:20:13.903Z,3.10
2018-07-16T16:22:41.603Z,3.00
2018-07-16T16:25:09.288Z,3.37
2018-07-16T16:27:36.999Z,3.80
2018-07-16T16:30:05.423Z,3.43
2018-07-16T16:32:33.184Z,3.50
2018-07-16T16:35:00.925Z,3.60
2018-07-16T16:37:29.016Z,6.90
2018-07-16T16:39:57.691Z,6.27
2018-07-16T16:42:25.560Z,5.00
2018-07-16T16:44:53.305Z,3.90
2018-07-16T16:50:40.197Z,3.50
2018-07-16T16:53:08.208Z,3.60
2018-07-16T16:55:35.896Z,3.37
2018-07-16T16:58:03.575Z,3.57
2018-07-16T17:00:31.276Z,3.63
2018-07-16T17:02:59.442Z,3.40
2018-07-16T17:05:27.211Z,3.60
2018-07-16T17:07:54.911Z,3.47
2018-07-16T17:10:22.696Z,3.77
2018-07-16T17:12:50.391Z,4.30
2018-07-16T17:15:18.099Z,4.07
2018-07-16T17:17:45.777Z,4.10
2018-07-16T17:20:13.489Z,3.50
2018-07-16T17:22:41.213Z,3.43
2018-07-16T17:25:08.952Z,3.67
2018-07-16T17:27:36.648Z,4.37
2018-07-16T17:30:04.495Z,3.93
2018-07-16T17:32:32.188Z,3.67
2018-07-16T17:34:59.939Z,3.73
2018-07-16T17:37:27.654Z,3.60
2018-07-16T17:39:59.580Z,3.30
2018-07-16T17:42:30.112Z,3.83
2018-07-16T17:45:04.552Z,3.87
2018-07-16T17:47:37.538Z,4.60
2018-07-16T17:50:10.476Z,5.20
2018-07-16T17:52:38.288Z,8.43
2018-07-16T17:55:14.079Z,7.27
2018-07-16T17:57:52.341Z,3.70
2018-07-16T18:00:24.329Z,3.83
2018-07-16T18:03:00.689Z,3.37
2018-07-16T18:05:36.176Z,2.87
2018-07-16T18:08:05.023Z,3.47
2018-07-16T18:10:35.893Z,3.37
2018-07-16T18:13:08.944Z,3.00
2018-07-16T18:15:38.393Z,3.40
2018-07-16T18:18:07.009Z,2.83
2018-07-16T18:20:34.729Z,3.43
2018-07-16T18:23:02.449Z,3.70
2018-07-16T18:25:30.245Z,3.57
2018-07-16T18:28:02.043Z,3.53
2018-07-16T18:30:30.277Z,3.43
2018-07-16T18:32:58.051Z,3.30
2018-07-16T18:35:31.612Z,3.17
2018-07-16T18:37:59.437Z,3.37
2018-07-16T18:40:28.384Z,3.40
2018-07-16T18:42:57.956Z,2.63
2018-07-16T18:45:33.579Z,3.40
2018-07-16T18:51:17.281Z,3.10
2018-07-16T18:53:45.324Z,2.83
2018-07-16T18:56:13.149Z,3.10
2018-07-16T18:58:41.210Z,2.90
2018-07-16T19:01:09.053Z,3.30
2018-07-16T19:03:37.594Z,3.27
2018-07-16T19:06:08.195Z,3.00
2018-07-16T19:08:40.108Z,3.37
2018-07-16T19:11:08.509Z,3.07
2018-07-16T19:13:42.036Z,3.83
2018-07-16T19:16:12.025Z,3.77
2018-07-16T19:18:39.833Z,3.30
2018-07-16T19:21:08.521Z,3.57
2018-07-16T19:23:37.045Z,3.40
2018-07-16T19:26:24.568Z,3.67
2018-07-16T19:28:52.635Z,3.33
2018-07-16T19:31:22.089Z,3.73
2018-07-16T19:33:49.938Z,4.17
2018-07-16T19:36:17.740Z,2.93
2018-07-16T19:38:46.369Z,3.37
2018-07-16T19:41:14.089Z,3.47
2018-07-16T19:43:42.263Z,3.93
2018-07-16T19:46:10.069Z,3.33
2018-07-16T19:48:38.295Z,3.87
2018-07-16T19:51:07.051Z,3.40
2018-07-16T19:53:35.056Z,3.37
2018-07-16T19:56:02.952Z,3.50
2018-07-16T19:58:31.140Z,3.90
2018-07-16T20:00:58.998Z,4.20
2018-07-16T20:03:26.745Z,3.63
2018-07-16T20:05:54.557Z,3.70
2018-07-16T20:08:22.376Z,3.57
2018-07-16T20:10:50.084Z,4.40
2018-07-16T20:13:17.881Z,3.70
2018-07-16T20:15:45.703Z,3.77
2018-07-16T20:18:13.308Z,4.13
2018-07-16T20:20:53.774Z,3.90
2018-07-16T20:23:21.464Z,3.50
2018-07-16T20:25:50.125Z,4.00
2018-07-16T20:28:18.147Z,3.87
2018-07-16T20:30:45.957Z,4.00
2018-07-16T20:33:13.735Z,4.03
2018-07-16T20:35:41.588Z,4.13
2018-07-16T20:38:09.662Z,4.20
2018-07-16T20:40:37.405Z,3.83
2018-07-16T20:43:05.173Z,4.40
2018-07-16T20:45:32.906Z,3.90
2018-07-16T20:48:00.647Z,4.03
2018-07-16T20:50:29.020Z,3.70
2018-07-16T20:52:57.107Z,3.83
2018-07-16T20:55:24.943Z,4.57
2018-07-16T20:57:52.699Z,4.20
2018-07-16T21:00:20.602Z,4.50
2018-07-16T21:02:48.395Z,4.33
2018-07-16T21:05:16.105Z,4.90
2018-07-16T21:07:43.876Z,4.17
2018-07-16T21:10:11.572Z,4.30
2018-07-16T21:12:39.272Z,4.50
2018-07-16T21:15:07.015Z,3.70
2018-07-16T21:17:34.811Z,4.20
2018-07-16T21:20:02.600Z,4.10
2018-07-16T21:22:30.364Z,4.90
2018-07-16T21:24:58.130Z,3.80
2018-07-16T21:27:25.868Z,3.77
2018-07-16T21:29:53.545Z,4.27
2018-07-16T21:32:21.265Z,4.57
2018-07-16T21:34:48.984Z,4.20
2018-07-16T21:37:16.666Z,4.87
2018-07-16T21:39:44.820Z,5.13
2018-07-16T21:42:12.524Z,5.03
2018-07-16T21:44:40.256Z,4.83
2018-07-16T21:47:07.960Z,4.80
2018-07-16T21:49:35.735Z,4.77
2018-07-16T21:52:03.619Z,4.30
2018-07-16T21:54:31.343Z,4.67
2018-07-16T21:56:59.412Z,5.00
2018-07-16T21:59:27.127Z,4.10
2018-07-16T22:01:55.143Z,4.57
2018-07-16T22:04:22.870Z,4.27
2018-07-16T22:06:50.644Z,4.43
2018-07-16T22:09:18.335Z,4.40
2018-07-16T22:11:46.042Z,4.90
2018-07-16T22:14:13.717Z,4.60
2018-07-16T22:16:41.466Z,4.17
2018-07-16T22:19:09.170Z,4.33
2018-07-16T22:21:36.918Z,4.77
2018-07-16T22:24:04.553Z,4.33
2018-07-16T22:26:32.329Z,4.70
2018-07-16T22:29:00.005Z,4.63
2018-07-16T22:31:28.330Z,4.40
2018-07-16T22:33:56.118Z,5.20
2018-07-16T22:36:23.798Z,4.47
2018-07-16T22:38:51.487Z,4.70
2018-07-16T22:41:19.153Z,4.50
2018-07-16T22:43:46.855Z,4.97
2018-07-16T22:46:14.534Z,5.13
2018-07-16T22:48:42.200Z,4.67
2018-07-16T22:51:09.994Z,4.57
2018-07-16T22:53:37.702Z,5.10
2018-07-16T22:56:05.417Z,4.67
2018-07-16T22:58:33.151Z,5.10
2018-07-16T23:01:00.839Z,4.50
2018-07-16T23:03:28.541Z,4.55
2018-07-16T23:05:56.223Z,5.05
2018-07-16T23:08:23.925Z,5.20
2018-07-16T23:10:51.654Z,5.03
2018-07-16T23:13:19.308Z,5.00
2018-07-16T23:15:47.024Z,5.15
2018-07-16T23:18:14.768Z,4.62
2018-07-16T23:20:42.435Z,4.92
2018-07-16T23:23:10.092Z,5.22
2018-07-16T23:25:37.843Z,4.87
2018-07-16T23:28:05.505Z,4.90
2018-07-16T23:30:33.256Z,5.20
2018-07-16T23:33:00.928Z,5.30
2018-07-16T23:35:28.619Z,5.33
2018-07-16T23:37:56.284Z,4.97
2018-07-16T23:40:23.967Z,5.78
2018-07-16T23:42:51.711Z,5.87
2018-07-16T23:45:19.401Z,5.60
2018-07-16T23:47:47.067Z,5.45
2018-07-16T23:50:14.764Z,5.05
2018-07-16T23:52:42.383Z,5.17
2018-07-16T23:55:10.058Z,5.65
2018-07-16T23:57:37.763Z,5.17
